createdAt,value
2018-06-09T00:01:14.698Z,18.67
2018-06-09T00:03:49.052Z,18.60
2018-06-09T00:06:23.757Z,18.61
2018-06-09T00:08:58.225Z,18.54
2018-06-09T00:11:32.710Z,18.56
2018-06-09T00:14:07.517Z,18.53
2018-06-09T00:16:42.010Z,18.49
2018-06-09T00:19:16.525Z,18.46
2018-06-09T00:21:51.345Z,18.49
2018-06-09T00:24:26.026Z,18.50
2018-06-09T00:27:00.662Z,18.48
2018-06-09T00:29:35.189Z,18.47
2018-06-09T00:32:09.768Z,18.57
2018-06-09T00:34:44.144Z,18.64
2018-06-09T00:37:18.672Z,18.67
2018-06-09T00:39:53.331Z,18.60
2018-06-09T00:42:30.767Z,18.54
2018-06-09T00:45:05.345Z,18.67
2018-06-09T00:47:39.724Z,18.73
2018-06-09T00:50:14.296Z,18.72
2018-06-09T00:52:49.151Z,18.76
2018-06-09T00:55:24.076Z,18.89
2018-06-09T00:57:58.661Z,18.93
2018-06-09T01:00:33.437Z,18.96
2018-06-09T01:03:08.033Z,18.95
2018-06-09T01:05:42.577Z,18.95
2018-06-09T01:08:17.132Z,19.06
2018-06-09T01:10:51.464Z,18.94
2018-06-09T01:13:26.020Z,18.97
2018-06-09T01:16:00.629Z,18.97
2018-06-09T01:18:35.235Z,19.00
2018-06-09T01:21:09.844Z,18.97
2018-06-09T01:23:44.272Z,18.95
2018-06-09T01:26:19.217Z,18.97
2018-06-09T01:28:53.724Z,18.87
2018-06-09T01:31:28.216Z,18.90
2018-06-09T01:34:02.657Z,18.90
2018-06-09T01:36:37.322Z,18.82
2018-06-09T01:39:12.068Z,18.78
2018-06-09T01:41:46.694Z,18.85
2018-06-09T01:44:21.077Z,18.70
2018-06-09T01:46:55.457Z,18.61
2018-06-09T01:49:30.300Z,18.62
2018-06-09T01:52:04.708Z,18.58
2018-06-09T01:54:39.212Z,18.51
2018-06-09T01:57:13.636Z,18.56
2018-06-09T01:59:48.073Z,18.54
2018-06-09T02:02:23.101Z,18.43
2018-06-09T02:04:57.646Z,18.45
2018-06-09T02:07:32.205Z,18.47
2018-06-09T02:10:06.729Z,18.40
2018-06-09T02:12:41.144Z,18.46
2018-06-09T02:15:15.661Z,18.40
2018-06-09T02:17:50.228Z,18.37
2018-06-09T02:20:24.730Z,18.38
2018-06-09T02:22:59.125Z,18.47
2018-06-09T02:25:34.129Z,18.44
2018-06-09T02:28:08.813Z,18.45
2018-06-09T02:30:43.437Z,18.51
2018-06-09T02:33:18.026Z,18.56
2018-06-09T02:35:52.376Z,18.59
2018-06-09T02:38:26.883Z,18.64
2018-06-09T02:41:01.460Z,18.63
2018-06-09T02:43:35.888Z,18.58
2018-06-09T02:46:10.273Z,18.57
2018-06-09T02:48:44.764Z,18.58
2018-06-09T02:51:19.108Z,18.60
2018-06-09T02:53:53.536Z,18.49
2018-06-09T02:56:27.909Z,18.53
2018-06-09T02:59:02.335Z,18.47
2018-06-09T03:01:36.897Z,18.37
2018-06-09T03:04:11.328Z,18.33
2018-06-09T03:06:45.793Z,18.33
2018-06-09T03:09:20.319Z,18.28
2018-06-09T03:11:54.973Z,18.24
2018-06-09T03:14:29.413Z,18.32
2018-06-09T03:17:04.021Z,18.32
2018-06-09T03:19:38.615Z,18.31
2018-06-09T03:22:12.985Z,18.33
2018-06-09T03:24:47.364Z,18.35
2018-06-09T03:27:21.873Z,18.27
2018-06-09T03:29:56.464Z,18.23
2018-06-09T03:32:31.023Z,18.15
2018-06-09T03:35:05.658Z,18.04
2018-06-09T03:37:40.617Z,18.12
2018-06-09T03:40:15.053Z,18.12
2018-06-09T03:42:49.604Z,18.10
2018-06-09T03:45:24.233Z,18.07
2018-06-09T03:47:58.804Z,17.98
2018-06-09T03:50:33.225Z,18.03
2018-06-09T03:53:07.576Z,18.02
2018-06-09T03:55:42.024Z,18.03
2018-06-09T03:58:16.717Z,18.03
2018-06-09T04:00:51.461Z,17.98
2018-06-09T04:03:26.104Z,18.02
2018-06-09T04:06:00.536Z,18.00
2018-06-09T04:08:34.939Z,18.07
2018-06-09T04:11:09.504Z,18.01
2018-06-09T04:13:44.172Z,18.08
2018-06-09T04:16:18.953Z,18.08
2018-06-09T04:18:53.449Z,18.09
2018-06-09T04:21:28.356Z,17.91
2018-06-09T04:24:03.026Z,18.19
2018-06-09T04:26:37.637Z,18.28
2018-06-09T04:29:12.028Z,18.30
2018-06-09T04:31:46.445Z,18.04
2018-06-09T04:34:20.827Z,18.16
2018-06-09T04:36:55.520Z,18.25
2018-06-09T04:39:29.872Z,18.18
2018-06-09T04:42:04.327Z,18.21
2018-06-09T04:44:38.824Z,18.10
2018-06-09T04:47:13.329Z,18.05
2018-06-09T04:49:47.780Z,18.13
2018-06-09T04:52:22.215Z,18.08
2018-06-09T04:54:56.645Z,18.15
2018-06-09T04:57:34.032Z,18.24
2018-06-09T05:00:08.625Z,18.28
2018-06-09T05:02:43.089Z,18.37
2018-06-09T05:05:17.624Z,18.39
2018-06-09T05:07:52.121Z,18.30
2018-06-09T05:10:26.700Z,18.49
2018-06-09T05:13:01.203Z,18.42
2018-06-09T05:15:35.770Z,18.51
2018-06-09T05:18:10.141Z,18.58
2018-06-09T05:20:44.516Z,18.61
2018-06-09T05:23:19.177Z,18.58
2018-06-09T05:25:53.862Z,18.70
2018-06-09T05:28:28.385Z,18.61
2018-06-09T05:31:02.689Z,18.66
2018-06-09T05:33:37.148Z,18.67
2018-06-09T05:36:11.725Z,18.77
2018-06-09T05:38:46.068Z,19.02
2018-06-09T05:41:20.426Z,19.02
2018-06-09T05:43:55.001Z,18.93
2018-06-09T05:46:29.477Z,18.85
2018-06-09T05:49:03.997Z,18.82
2018-06-09T05:51:38.567Z,18.97
2018-06-09T05:54:13.049Z,19.09
2018-06-09T05:56:47.567Z,19.40
2018-06-09T05:59:22.034Z,19.64
2018-06-09T06:01:56.388Z,19.49
2018-06-09T06:04:30.780Z,19.56
2018-06-09T06:07:05.348Z,19.77
2018-06-09T06:09:39.712Z,20.15
2018-06-09T06:12:14.145Z,20.08
2018-06-09T06:14:48.981Z,19.75
2018-06-09T06:17:23.780Z,19.95
2018-06-09T06:19:58.208Z,20.28
2018-06-09T06:22:32.798Z,20.18
2018-06-09T06:25:07.444Z,20.36
2018-06-09T06:27:42.117Z,20.58
2018-06-09T06:30:16.926Z,20.35
2018-06-09T06:32:51.533Z,20.64
2018-06-09T06:35:26.044Z,20.73
2018-06-09T06:38:00.492Z,20.96
2018-06-09T06:40:34.937Z,21.37
2018-06-09T06:43:10.057Z,21.66
2018-06-09T06:45:44.601Z,21.63
2018-06-09T06:48:19.068Z,21.41
2018-06-09T06:50:53.529Z,21.87
2018-06-09T06:53:28.111Z,21.74
2018-06-09T06:56:02.757Z,22.11
2018-06-09T06:58:37.390Z,22.31
2018-06-09T07:01:11.960Z,22.52
2018-06-09T07:03:46.456Z,22.70
2018-06-09T07:06:20.940Z,23.63
2018-06-09T07:08:55.428Z,22.79
2018-06-09T07:11:30.014Z,23.01
2018-06-09T07:14:04.580Z,23.27
2018-06-09T07:16:39.068Z,22.66
2018-06-09T07:19:13.593Z,23.81
2018-06-09T07:21:48.180Z,23.37
2018-06-09T07:24:22.668Z,23.19
2018-06-09T07:26:57.162Z,22.81
2018-06-09T07:29:31.613Z,22.99
2018-06-09T07:32:06.260Z,22.85
2018-06-09T07:34:40.721Z,23.28
2018-06-09T07:37:15.289Z,23.52
2018-06-09T07:39:49.678Z,24.31
2018-06-09T07:42:24.475Z,23.51
2018-06-09T07:44:58.877Z,25.12
2018-06-09T07:47:33.428Z,26.49
2018-06-09T07:50:08.176Z,27.53
2018-06-09T07:52:42.852Z,26.81
2018-06-09T07:55:17.441Z,26.93
2018-06-09T07:57:52.029Z,27.36
2018-06-09T08:00:27.153Z,27.12
2018-06-09T08:03:01.609Z,26.84
2018-06-09T08:05:36.180Z,27.60
2018-06-09T08:08:10.549Z,26.09
2018-06-09T08:10:45.236Z,26.78
2018-06-09T08:13:19.870Z,27.19
2018-06-09T08:15:54.250Z,26.10
2018-06-09T08:18:28.808Z,27.13
2018-06-09T08:21:03.345Z,27.33
2018-06-09T08:23:37.752Z,27.19
2018-06-09T08:26:12.137Z,26.74
2018-06-09T08:28:46.823Z,26.45
2018-06-09T08:31:21.349Z,27.06
2018-06-09T08:33:55.781Z,26.61
2018-06-09T08:36:30.230Z,26.72
2018-06-09T08:39:06.184Z,26.44
2018-06-09T08:41:40.725Z,26.94
2018-06-09T08:44:15.629Z,27.21
2018-06-09T08:46:50.362Z,26.88
2018-06-09T08:49:24.948Z,26.80
2018-06-09T08:51:59.470Z,27.99
2018-06-09T08:54:33.994Z,27.73
2018-06-09T08:57:08.400Z,28.55
2018-06-09T08:59:42.865Z,28.25
2018-06-09T09:02:17.461Z,27.59
2018-06-09T09:04:52.026Z,26.90
2018-06-09T09:07:26.626Z,28.66
2018-06-09T09:10:01.119Z,28.04
2018-06-09T09:12:35.737Z,27.29
2018-06-09T09:15:10.095Z,28.32
2018-06-09T09:17:44.487Z,28.69
2018-06-09T09:20:18.957Z,28.96
2018-06-09T09:22:53.449Z,27.85
2018-06-09T09:25:27.796Z,28.17
2018-06-09T09:28:02.529Z,28.30
2018-06-09T09:30:37.187Z,27.48
2018-06-09T09:33:12.025Z,27.26
2018-06-09T09:35:46.645Z,27.03
2018-06-09T09:38:21.264Z,26.13
2018-06-09T09:40:55.651Z,27.55
2018-06-09T09:43:30.084Z,26.88
2018-06-09T09:46:04.889Z,28.43
2018-06-09T09:48:39.424Z,29.83
2018-06-09T09:51:13.995Z,29.86
2018-06-09T09:53:48.341Z,29.08
2018-06-09T09:56:22.769Z,28.83
2018-06-09T09:58:57.301Z,28.96
2018-06-09T10:01:31.676Z,28.97
2018-06-09T10:04:06.481Z,29.57
2018-06-09T10:06:41.228Z,29.76
2018-06-09T10:09:15.797Z,31.06
2018-06-09T10:11:50.400Z,29.59
2018-06-09T10:14:25.207Z,29.30
2018-06-09T10:16:59.757Z,27.95
2018-06-09T10:19:34.210Z,27.40
2018-06-09T10:22:11.700Z,29.93
2018-06-09T10:24:46.272Z,30.20
2018-06-09T10:27:20.969Z,30.79
2018-06-09T10:29:55.384Z,31.31
2018-06-09T10:32:29.834Z,33.06
2018-06-09T10:35:04.473Z,31.81
2018-06-09T10:37:38.912Z,31.28
2018-06-09T10:40:14.037Z,30.14
2018-06-09T10:42:48.568Z,29.80
2018-06-09T10:45:23.045Z,31.48
2018-06-09T10:47:57.424Z,30.63
2018-06-09T10:50:32.166Z,31.13
2018-06-09T10:53:06.800Z,30.34
2018-06-09T10:55:41.253Z,30.03
2018-06-09T10:58:15.817Z,31.88
2018-06-09T11:00:50.737Z,31.38
2018-06-09T11:03:25.324Z,30.71
2018-06-09T11:05:59.790Z,31.97
2018-06-09T11:08:34.152Z,29.86
2018-06-09T11:11:08.596Z,30.22
2018-06-09T11:13:43.013Z,30.22
2018-06-09T11:16:17.778Z,31.53
2018-06-09T11:18:52.379Z,31.72
2018-06-09T11:21:27.028Z,30.48
2018-06-09T11:24:01.497Z,31.08
2018-06-09T11:26:35.952Z,30.50
2018-06-09T11:29:10.401Z,33.97
2018-06-09T11:31:45.027Z,32.34
2018-06-09T11:34:19.492Z,31.94
2018-06-09T11:36:53.920Z,32.56
2018-06-09T11:39:28.556Z,33.12
2018-06-09T11:42:03.109Z,30.91
2018-06-09T11:44:37.632Z,30.33
2018-06-09T11:50:11.905Z,28.84
2018-06-09T11:52:46.700Z,28.66
2018-06-09T11:55:21.080Z,29.33
2018-06-09T11:57:55.489Z,28.89
2018-06-09T12:00:30.079Z,28.26
2018-06-09T12:03:04.948Z,28.57
2018-06-09T12:05:39.588Z,27.81
2018-06-09T12:08:13.969Z,27.46
2018-06-09T12:10:48.388Z,26.99
2018-06-09T12:13:22.945Z,27.10
2018-06-09T12:15:57.484Z,27.22
2018-06-09T12:18:31.865Z,27.22
2018-06-09T12:21:06.297Z,27.28
2018-06-09T12:23:40.848Z,27.14
2018-06-09T12:26:15.437Z,26.87
2018-06-09T12:28:49.833Z,27.34
2018-06-09T12:31:24.213Z,27.72
2018-06-09T12:33:58.930Z,27.37
2018-06-09T12:36:33.506Z,27.63
2018-06-09T12:39:08.216Z,27.28
2018-06-09T12:41:42.706Z,27.13
2018-06-09T12:44:17.169Z,26.87
2018-06-09T12:46:51.555Z,26.77
2018-06-09T12:49:26.123Z,27.04
2018-06-09T12:52:01.002Z,27.02
2018-06-09T12:54:35.385Z,26.89
2018-06-09T12:57:09.816Z,27.37
2018-06-09T12:59:44.472Z,27.36
2018-06-09T13:02:18.941Z,26.97
2018-06-09T13:04:53.556Z,27.00
2018-06-09T13:07:28.168Z,27.10
2018-06-09T13:10:02.724Z,27.30
2018-06-09T13:12:37.398Z,27.02
2018-06-09T13:15:11.983Z,27.19
2018-06-09T13:17:46.517Z,27.11
2018-06-09T13:20:20.868Z,27.29
2018-06-09T13:22:55.671Z,27.57
2018-06-09T13:25:30.233Z,27.50
2018-06-09T13:28:04.961Z,27.41
2018-06-09T13:30:39.460Z,27.35
2018-06-09T13:33:13.881Z,27.39
2018-06-09T13:35:48.583Z,27.61
2018-06-09T13:38:23.140Z,27.60
2018-06-09T13:40:57.653Z,27.56
2018-06-09T13:43:32.174Z,27.64
2018-06-09T13:46:06.708Z,27.04
2018-06-09T13:48:41.175Z,27.24
2018-06-09T13:51:15.497Z,27.86
2018-06-09T13:53:49.960Z,28.15
2018-06-09T13:59:40.037Z,28.15
2018-06-09T14:02:14.540Z,28.49
2018-06-09T14:04:49.240Z,28.64
2018-06-09T14:07:23.733Z,29.03
2018-06-09T14:09:58.109Z,28.54
2018-06-09T14:12:33.097Z,28.44
2018-06-09T14:15:07.525Z,28.69
2018-06-09T14:17:42.126Z,28.74
2018-06-09T14:20:16.757Z,28.79
2018-06-09T14:22:51.685Z,29.00
2018-06-09T14:25:26.225Z,28.86
2018-06-09T14:28:00.737Z,28.85
2018-06-09T14:30:35.269Z,29.13
2018-06-09T14:33:10.284Z,30.01
2018-06-09T14:35:44.753Z,30.37
2018-06-09T14:38:19.183Z,30.01
2018-06-09T14:40:53.677Z,30.62
2018-06-09T14:43:28.309Z,29.91
2018-06-09T14:46:02.800Z,31.18
2018-06-09T14:48:37.452Z,31.43
2018-06-09T14:51:11.864Z,30.84
2018-06-09T14:53:46.424Z,31.48
2018-06-09T14:56:21.049Z,30.28
2018-06-09T14:58:55.673Z,30.61
2018-06-09T15:01:30.022Z,30.86
2018-06-09T15:04:04.671Z,29.96
2018-06-09T15:06:39.225Z,29.09
2018-06-09T15:09:13.866Z,29.36
2018-06-09T15:11:48.456Z,29.59
2018-06-09T15:14:23.105Z,29.77
2018-06-09T15:16:57.512Z,29.53
2018-06-09T15:19:32.142Z,29.41
2018-06-09T15:22:06.517Z,28.69
2018-06-09T15:24:41.449Z,28.82
2018-06-09T15:27:16.193Z,28.47
2018-06-09T15:29:50.793Z,28.33
2018-06-09T15:32:25.418Z,27.83
2018-06-09T15:35:00.058Z,27.66
2018-06-09T15:37:34.506Z,27.28
2018-06-09T15:40:09.148Z,27.33
2018-06-09T15:42:43.712Z,27.66
2018-06-09T15:45:18.153Z,27.63
2018-06-09T15:47:52.893Z,27.69
2018-06-09T15:50:27.457Z,27.69
2018-06-09T15:53:02.041Z,27.59
2018-06-09T15:55:36.617Z,27.42
2018-06-09T15:58:11.138Z,27.45
2018-06-09T16:00:46.083Z,27.36
2018-06-09T16:03:20.690Z,27.13
2018-06-09T16:05:55.198Z,27.17
2018-06-09T16:08:29.724Z,27.24
2018-06-09T16:11:04.181Z,27.27
2018-06-09T16:13:38.660Z,27.08
2018-06-09T16:16:13.181Z,27.01
2018-06-09T16:18:47.685Z,26.94
2018-06-09T16:21:22.106Z,27.12
2018-06-09T16:23:56.801Z,27.15
2018-06-09T16:26:31.409Z,27.08
2018-06-09T16:29:06.085Z,26.99
2018-06-09T16:31:40.693Z,27.26
2018-06-09T16:34:17.264Z,27.07
2018-06-09T16:36:53.426Z,26.95
2018-06-09T16:39:28.497Z,26.85
2018-06-09T16:42:03.020Z,26.69
2018-06-09T16:44:37.501Z,26.53
2018-06-09T16:50:11.832Z,26.60
2018-06-09T16:52:46.476Z,26.45
2018-06-09T16:55:20.857Z,26.66
2018-06-09T16:57:55.354Z,26.60
2018-06-09T17:00:29.984Z,26.31
2018-06-09T17:03:04.805Z,26.32
2018-06-09T17:05:39.356Z,26.23
2018-06-09T17:08:13.817Z,26.36
2018-06-09T17:10:48.383Z,26.10
2018-06-09T17:13:22.817Z,26.08
2018-06-09T17:15:57.269Z,25.99
2018-06-09T17:18:31.988Z,25.98
2018-06-09T17:21:06.413Z,26.08
2018-06-09T17:23:40.864Z,26.07
2018-06-09T17:26:15.724Z,25.97
2018-06-09T17:28:50.116Z,26.00
2018-06-09T17:31:24.559Z,26.15
2018-06-09T17:33:58.991Z,25.94
2018-06-09T17:36:33.521Z,26.03
2018-06-09T17:39:08.356Z,25.97
2018-06-09T17:41:43.040Z,25.94
2018-06-09T17:44:17.462Z,25.83
2018-06-09T17:46:52.001Z,25.72
2018-06-09T17:49:26.620Z,25.60
2018-06-09T17:52:01.229Z,25.53
2018-06-09T17:54:35.724Z,25.54
2018-06-09T17:57:10.332Z,25.37
2018-06-09T17:59:44.836Z,25.28
2018-06-09T18:02:19.609Z,25.44
2018-06-09T18:04:54.312Z,25.35
2018-06-09T18:07:28.928Z,25.18
2018-06-09T18:10:03.476Z,25.17
2018-06-09T18:12:38.013Z,25.13
2018-06-09T18:15:12.420Z,24.96
2018-06-09T18:17:46.820Z,24.88
2018-06-09T18:20:21.723Z,24.83
2018-06-09T18:22:56.211Z,24.67
2018-06-09T18:25:30.541Z,24.56
2018-06-09T18:28:05.121Z,24.54
2018-06-09T18:30:39.657Z,24.52
2018-06-09T18:33:14.181Z,24.47
2018-06-09T18:35:48.912Z,24.45
2018-06-09T18:38:23.528Z,24.46
2018-06-09T18:40:57.842Z,24.36
2018-06-09T18:43:32.476Z,24.32
2018-06-09T18:46:06.965Z,24.23
2018-06-09T18:48:41.485Z,24.19
2018-06-09T18:51:16.080Z,24.10
2018-06-09T18:53:50.676Z,23.98
2018-06-09T18:56:25.476Z,23.96
2018-06-09T18:59:00.249Z,23.86
2018-06-09T19:01:34.830Z,23.82
2018-06-09T19:04:09.581Z,23.80
2018-06-09T19:06:44.265Z,23.76
2018-06-09T19:09:18.912Z,23.68
2018-06-09T19:11:53.341Z,23.66
2018-06-09T19:14:27.845Z,23.60
2018-06-09T19:17:02.603Z,23.57
2018-06-09T19:19:37.057Z,23.58
2018-06-09T19:22:11.490Z,23.52
2018-06-09T19:24:46.069Z,23.46
2018-06-09T19:27:20.541Z,23.44
2018-06-09T19:29:55.173Z,23.41
2018-06-09T19:32:29.604Z,23.39
2018-06-09T19:35:04.085Z,23.34
2018-06-09T19:37:38.481Z,23.29
2018-06-09T19:40:13.086Z,23.20
2018-06-09T19:42:47.688Z,23.12
2018-06-09T19:45:22.185Z,23.03
2018-06-09T19:47:56.850Z,22.99
2018-06-09T19:50:31.476Z,22.89
2018-06-09T19:53:06.169Z,22.80
2018-06-09T19:55:40.784Z,22.71
2018-06-09T19:58:15.437Z,22.61
2018-06-09T20:00:49.809Z,22.58
2018-06-09T20:03:24.448Z,22.50
2018-06-09T20:05:59.017Z,22.42
2018-06-09T20:08:33.596Z,22.36
2018-06-09T20:11:07.951Z,22.34
2018-06-09T20:13:42.422Z,22.29
2018-06-09T20:16:17.217Z,22.24
2018-06-09T20:18:51.736Z,22.17
2018-06-09T20:21:26.271Z,22.10
2018-06-09T20:24:00.957Z,22.06
2018-06-09T20:26:35.545Z,21.99
2018-06-09T20:29:10.446Z,21.92
2018-06-09T20:31:45.000Z,21.87
2018-06-09T20:34:19.425Z,21.88
2018-06-09T20:36:53.965Z,21.88
2018-06-09T20:39:28.822Z,21.87
2018-06-09T20:42:03.421Z,21.83
2018-06-09T20:44:38.110Z,21.81
2018-06-09T20:47:12.657Z,21.79
2018-06-09T20:49:47.551Z,21.77
2018-06-09T20:52:22.091Z,21.74
2018-06-09T20:54:56.659Z,21.75
2018-06-09T20:57:31.189Z,21.72
2018-06-09T21:00:05.762Z,21.70
2018-06-09T21:02:40.372Z,21.69
2018-06-09T21:05:14.925Z,21.65
2018-06-09T21:07:49.388Z,21.61
2018-06-09T21:10:23.820Z,21.59
2018-06-09T21:12:58.320Z,21.56
2018-06-09T21:15:32.840Z,21.53
2018-06-09T21:18:07.390Z,21.54
2018-06-09T21:20:41.887Z,21.57
2018-06-09T21:23:16.260Z,21.60
2018-06-09T21:25:50.857Z,21.58
2018-06-09T21:28:25.737Z,21.60
2018-06-09T21:31:05.838Z,21.71
2018-06-09T21:33:57.112Z,21.72
2018-06-09T21:36:35.847Z,21.67
2018-06-09T21:39:15.784Z,21.58
2018-06-09T21:41:55.510Z,21.44
2018-06-09T21:44:35.200Z,21.38
2018-06-09T21:47:10.205Z,21.40
2018-06-09T21:49:45.066Z,21.36
2018-06-09T21:52:19.536Z,21.35
2018-06-09T21:54:54.157Z,21.36
2018-06-09T21:57:28.677Z,21.42
2018-06-09T22:00:03.625Z,21.43
2018-06-09T22:02:38.116Z,21.36
2018-06-09T22:05:12.750Z,21.38
2018-06-09T22:07:47.369Z,21.40
2018-06-09T22:10:22.210Z,21.38
2018-06-09T22:12:57.153Z,21.38
2018-06-09T22:15:31.688Z,21.55
2018-06-09T22:18:06.240Z,21.72
2018-06-09T22:20:41.496Z,21.72
2018-06-09T22:23:16.135Z,21.50
2018-06-09T22:25:56.070Z,21.44
2018-06-09T22:28:30.656Z,21.38
2018-06-09T22:31:05.269Z,21.31
2018-06-09T22:33:39.767Z,21.30
2018-06-09T22:36:14.548Z,21.34
2018-06-09T22:38:48.839Z,21.21
2018-06-09T22:41:23.242Z,20.94
2018-06-09T22:43:58.045Z,20.77
2018-06-09T22:46:32.529Z,20.67
2018-06-09T22:49:06.960Z,20.54
2018-06-09T22:51:41.285Z,20.69
2018-06-09T22:54:16.085Z,20.45
2018-06-09T22:56:50.432Z,20.10
2018-06-09T22:59:25.020Z,19.91
2018-06-09T23:01:59.465Z,19.77
2018-06-09T23:04:33.958Z,19.35
2018-06-09T23:07:08.541Z,19.08
2018-06-09T23:09:43.370Z,19.09
2018-06-09T23:12:17.816Z,18.97
2018-06-09T23:14:52.604Z,18.90
2018-06-09T23:17:27.182Z,18.77
2018-06-09T23:20:02.137Z,18.53
2018-06-09T23:22:36.604Z,18.48
2018-06-09T23:25:11.286Z,18.49
2018-06-09T23:27:46.116Z,18.51
2018-06-09T23:30:20.744Z,18.56
2018-06-09T23:32:55.256Z,18.77
2018-06-09T23:35:29.836Z,18.74
2018-06-09T23:38:04.244Z,18.84
2018-06-09T23:40:38.736Z,18.69
2018-06-09T23:43:13.079Z,18.52
2018-06-09T23:45:47.500Z,18.42
2018-06-09T23:48:22.137Z,18.37
2018-06-09T23:50:56.513Z,18.28
2018-06-09T23:53:30.876Z,18.11
2018-06-09T23:56:05.616Z,18.02
2018-06-09T23:58:40.200Z,19.23
